• Join FlightAware (Why Join?)
  • Login
  • US Flag 
05:57PM EDT


 

Airport Tracker/Info


-or-


 

Live Flight TrackerFlight Track Log ✈ N5CX ✈ 06-Aug-2013 ✈ KLAN - KESC

Flight Track Log - Related Links

Times and Time Zones

All times are in EDT time to prevent confusion due to time zone crossing. See the N5CX flight status page for this flight to view local times or setup timezone preferences in your user account.

Time Position Orientation Groundspeed Altitude Reporting Facility
EDT Latitude Longitude Course Direction KTS MPH feet Rate Location/Type
08:22AM 42.9014 -84.6236 332° Northwest 153 176 3,900  Level Chicago Center
08:23AM 42.9403 -84.6508 333° Northwest 155 178 4,600 720 Climbing Chicago Center
08:24AM 43.0029 -84.7690 330° Northwest  Level FlightAware Approximate
08:24AM 42.9842 -84.6856 330° Northwest 154 177 5,500  Level Chicago Center
08:25AM 43.0421 -84.8003 330° Northwest  Level FlightAware Approximate
08:25AM 43.0206 -84.7197 326° Northwest 158 182 6,100  Level Chicago Center
08:26AM 43.0814 -84.8317 330° Northwest  Level FlightAware Approximate
08:26AM 43.0575 -84.7506 329° Northwest 157 181 6,900  Level Chicago Center
08:27AM 43.0986 -84.7822 331° Northwest 165 190 7,000  Climbing Chicago Center
08:28AM 43.1428 -84.8219 327° Northwest 184 212 6,900  Descending Chicago Center
08:29AM 43.1872 -84.8564 331° Northwest 185 213 7,000 60 Climbing Chicago Center
08:30AM 43.2378 -84.8986 329° Northwest 180 207 7,100  Climbing Chicago Center
08:31AM 43.2819 -84.9342 330° Northwest 183 211 7,000  Descending Chicago Center
08:32AM 43.3242 -84.9697 329° Northwest 182 209 7,100  Climbing Chicago Center
08:33AM 43.3672 -85.0056 329° Northwest 182 209 7,100  Level Chicago Center
08:34AM 43.4111 -85.0397 331° Northwest 183 211 7,100  Level Chicago Center
08:35AM 43.4619 -85.0842 328° Northwest 181 208 7,100  Level Chicago Center
08:36AM 43.5019 -85.1236 324° Northwest 179 206 7,100  Level Chicago Center
08:37AM 43.5436 -85.1597 328° Northwest 177 204 7,100  Level Chicago Center
08:38AM 43.5839 -85.1956 327° Northwest 175 201 7,100  Level Chicago Center
08:39AM 43.6242 -85.2325 326° Northwest 175 201 7,100  Level Chicago Center
08:40AM 43.6572 -85.2597 329° Northwest 175 201 7,100  Level Minneapolis Center
08:41AM 43.6986 -85.2961 328° Northwest 175 201 7,100  Level Minneapolis Center
08:42AM 43.7469 -85.3381 328° Northwest 174 200 7,100  Level Minneapolis Center
08:43AM 43.7883 -85.3753 327° Northwest 176 203 7,100 -60 Level Minneapolis Center
08:44AM 43.8292 -85.4117 327° Northwest 176 203 7,000 -60 Descending Minneapolis Center
08:45AM 43.8731 -85.4442 332° Northwest 178 205 7,000  Level Minneapolis Center
08:46AM 43.9147 -85.4803 328° Northwest 177 204 7,000  Level Minneapolis Center
08:47AM 43.9569 -85.5169 328° Northwest 179 206 7,000  Level Minneapolis Center
08:48AM 44.0092 -85.5603 329° Northwest 181 208 7,000  Level Minneapolis Center
08:49AM 44.0503 -85.5964 328° Northwest 178 205 7,000  Level Minneapolis Center
08:50AM 44.0889 -85.6314 327° Northwest 177 204 7,000  Level Minneapolis Center
08:51AM 44.1319 -85.6667 330° Northwest 178 205 7,000  Level Minneapolis Center
08:53AM 44.1739 -85.7053 327° Northwest 180 207 7,000  Level Minneapolis Center
08:54AM 44.2242 -85.7506 327° Northwest 179 206 7,000  Level Minneapolis Center
08:55AM 44.2667 -85.7878 328° Northwest 181 208 7,000  Level Minneapolis Center
08:56AM 44.3092 -85.8242 329° Northwest 179 206 7,000  Level Minneapolis Center
08:57AM 44.3436 -85.8525 330° Northwest 180 207 7,000  Level Minneapolis Center
08:58AM 44.3942 -85.8967 328° Northwest 178 205 7,000  Level Minneapolis Center
08:59AM 44.4372 -85.9319 330° Northwest 179 206 7,000  Level Minneapolis Center
09:00AM 44.4792 -85.9678 329° Northwest 178 205 7,000  Level Minneapolis Center
09:01AM 44.5297 -86.0136 327° Northwest 179 206 7,000  Level Minneapolis Center
09:02AM 44.5731 -86.0497 329° Northwest 180 207 7,000  Level Minneapolis Center
09:03AM 44.6161 -86.0869 328° Northwest 181 208 7,000  Level Minneapolis Center
09:04AM 44.6583 -86.1250 327° Northwest 179 206 7,000  Level Minneapolis Center
09:05AM 44.7017 -86.1631 328° Northwest 181 208 7,000  Level Minneapolis Center
09:06AM 44.7461 -86.2011 329° Northwest 183 211 7,000  Level Minneapolis Center
09:07AM 44.7892 -86.2403 327° Northwest 183 211 7,000  Level Minneapolis Center
09:08AM 44.8325 -86.2786 328° Northwest 183 211 7,000  Level Minneapolis Center
09:09AM 44.8758 -86.3175 328° Northwest 183 211 7,000  Level Minneapolis Center
09:10AM 44.9183 -86.3561 327° Northwest 183 211 7,000  Level Minneapolis Center
09:11AM 44.9703 -86.4017 328° Northwest 183 211 7,000 -180 Level Minneapolis Center
09:12AM 45.0139 -86.4400 328° Northwest 186 214 6,700 -480 Descending Minneapolis Center
09:13AM 45.0583 -86.4836 325° Northwest 193 222 6,100 -360 Descending Minneapolis Center
09:14AM 45.1025 -86.5222 328° Northwest 187 215 6,000 -60 Descending Minneapolis Center
09:15AM 45.1464 -86.5564 331° Northwest 180 207 6,000  Level Minneapolis Center
09:16AM 45.1933 -86.5786 342° North 178 205 6,000  Level Minneapolis Center
09:17AM 45.2383 -86.6067 336° Northwest 178 205 6,000 -60 Level Minneapolis Center
09:18AM 45.2814 -86.6397 332° Northwest 177 204 5,900 -360 Descending Minneapolis Center
09:19AM 45.3372 -86.6814 332° Northwest 182 209 5,300 -600 Descending Minneapolis Center
09:20AM 45.3864 -86.7189 332° Northwest 191 220 4,700 -540 Descending Minneapolis Center
09:21AM 45.4383 -86.7578 332° Northwest 195 224 4,200 -600 Descending Minneapolis Center
09:22AM 45.4842 -86.7889 335° Northwest 196 226 3,500 -600 Descending Minneapolis Center
09:23AM 45.5294 -86.8206 334° Northwest 190 219 3,000 -540 Descending Minneapolis Center
09:24AM 45.5789 -86.8372 347° North 186 214 2,500 -300 Descending Minneapolis Center
09:25AM 45.6289 -86.8333 North 182 209 2,500  Level Minneapolis Center
09:26AM 45.6858 -86.8322 North 176 203 2,500 -120 Level Minneapolis Center
09:27AM 45.7072 -86.8825 301° West 180 207 2,300 -240 Descending Minneapolis Center
09:28AM 45.7200 -86.9289 292° West 151 174 2,100 -180 Descending Minneapolis Center
09:30AM 45.7197 -86.9883 270° West 131 151 1,900 -180 Descending Minneapolis Center
09:31AM 45.7197 -87.0342 270° West 128 147 1,700 -240 Descending Minneapolis Center